LZIB/BTS METAR and TAF weather

Enter ICAO airport designator
Station Type Date Time Source
LZIB METAR 2019/10/18 12:00 UTC NOAA

LZIB 181200Z 25002KT 8000 BKN007 OVC008 13/11 Q1016 NOSIG


Station Type Date Time Source
LZIB Decoded METAR 2019/10/18 12:00 UTC NOAA

Bratislava Ivanka, Slovakia (LZIB) 48-12N 017-12E 142M
Oct 18, 2019 - 08:00 AM EDT / 2019.10.18 1200 UTC
Wind: from the WSW (250 degrees) at 2 MPH (2 KT):0
Visibility: 4 mile(s):0
Sky conditions: overcast
Temperature: 55 F (13 C)
Dew Point: 51 F (11 C)
Relative Humidity: 87%
Pressure (altimeter): 30.00 in. Hg (1016 hPa)
ob: LZIB 181200Z 25002KT 8000 BKN007 OVC008 13/11 Q1016 NOSIG
cycle: 12

Station Type Date Time Source
LZIB TAF 2019/10/18 12:57 UTC NOAA

TAF TAF LZIB 181100Z 1812/1912 04004KT 6000 SCT009
BECMG 1812/1813 9999 SCT040 PROB30 1812/1818 2500 BR BKN004
BECMG 1818/1820 1400 BR SCT002
TEMPO 1821/1909 VRB02KT 0200 FG OVC001

Example: see airport list